Time;durP1;ratioP1;P1;durP2;ratioP2;P2;SDS_P1;SDS_P2;PMS_P1;PMS_P2;Temp;Humidity;BMP_temperature;BMP_pressure;BME280_temperature;BME280_humidity;BME280_pressure;Samples;Min_cycle;Max_cycle;Signal;HPM_P1;HPM_P2
2023/03/04 00:00:11;;;;;;;;;;;;;;;2.90;74.90;101395.78;4129793;28;20020;-64
2023/03/04 00:02:13;;;;;;;;;;;;;;;2.87;74.70;101388.00;4125365;28;20016;-64
2023/03/04 00:04:17;;;;;;;;;;;;;;;2.85;75.06;101400.56;4122346;28;20903;-64
2023/03/04 00:06:19;;;;;;;;;;;;;;;2.85;75.21;101395.25;4123245;28;20451;-64
2023/03/04 00:08:20;;;;;;;;;;;;;;;2.84;75.28;101397.06;4122571;28;20013;-64
2023/03/04 00:10:22;;;;;;;;;;;;;;;2.83;75.23;101397.19;4122205;28;19973;-64
2023/03/04 00:12:24;;;;;;;;;;;;;;;2.79;75.30;101412.56;4121684;28;20493;-64
2023/03/04 00:14:26;;;;;;;;;;;;;;;2.74;75.46;101395.16;4122185;28;20028;-64
2023/03/04 00:16:28;;;;;;;;;;;;;;;2.72;75.37;101405.94;4122394;28;20459;-64
2023/03/04 00:18:30;;;;;;;;;;;;;;;2.70;75.38;101395.38;4122821;28;20025;-64
2023/03/04 00:20:33;;;;;;;;;;;;;;;2.69;75.61;101401.66;4121994;28;20017;-64
2023/03/04 00:22:35;;;;;;;;;;;;;;;2.65;75.77;101386.88;4122243;28;20021;-63
2023/03/04 00:24:37;;;;;;;;;;;;;;;2.61;75.86;101389.88;4122722;28;20021;-64
2023/03/04 00:26:39;;;;;;;;;;;;;;;2.57;75.70;101380.38;4116637;28;20029;-64
2023/03/04 00:28:41;;;;;;;;;;;;;;;2.53;76.09;101380.59;4120063;28;20028;-64
2023/03/04 00:30:43;;;;;;;;;;;;;;;2.51;76.14;101374.50;4120271;28;20408;-63
2023/03/04 00:32:45;;;;;;;;;;;;;;;2.46;76.46;101376.66;4119893;28;20450;-64
2023/03/04 00:34:47;;;;;;;;;;;;;;;2.46;76.63;101384.66;4113001;28;20324;-64
2023/03/04 00:36:51;;;;;;;;;;;;;;;2.47;76.77;101377.50;4131072;28;20013;-64
2023/03/04 00:38:53;;;;;;;;;;;;;;;2.49;77.06;101373.78;4129479;28;20348;-64
2023/03/04 00:40:55;;;;;;;;;;;;;;;2.50;77.03;101371.97;4125438;28;20025;-64
2023/03/04 00:42:57;;;;;;;;;;;;;;;2.51;76.84;101368.34;4127019;28;20012;-64
2023/03/04 00:44:59;;;;;;;;;;;;;;;2.53;77.10;101375.25;4111037;28;20028;-64
2023/03/04 00:47:01;;;;;;;;;;;;;;;2.58;76.72;101366.06;4126567;28;20020;-64
2023/03/04 00:49:03;;;;;;;;;;;;;;;2.58;76.65;101369.59;4125175;28;20499;-63
2023/03/04 00:51:05;;;;;;;;;;;;;;;2.59;76.62;101370.47;4116856;28;20351;-64
2023/03/04 00:53:10;;;;;;;;;;;;;;;2.60;76.84;101357.03;4121878;28;20467;-64
2023/03/04 00:55:12;;;;;;;;;;;;;;;2.62;76.68;101354.25;4121726;28;20017;-65
2023/03/04 00:57:14;;;;;;;;;;;;;;;2.59;76.99;101346.47;4121498;28;20380;-64
2023/03/04 00:59:16;;;;;;;;;;;;;;;2.59;77.25;101341.97;4121716;28;20471;-64
2023/03/04 01:01:18;;;;;;;;;;;;;;;2.62;77.19;101352.41;4120527;28;20017;-64
2023/03/04 01:03:20;;;;;;;;;;;;;;;2.66;76.99;101361.03;4121670;28;20038;-64
2023/03/04 01:05:22;;;;;;;;;;;;;;;2.70;76.92;101350.03;4103642;28;20029;-64
2023/03/04 01:07:24;;;;;;;;;;;;;;;2.74;76.83;101349.81;4122358;28;20021;-61
2023/03/04 01:09:28;;;;;;;;;;;;;;;2.74;76.58;101350.66;4122031;28;20028;-64
2023/03/04 01:11:30;;;;;;;;;;;;;;;2.77;76.57;101338.94;4121547;28;20020;-64
2023/03/04 01:13:32;;;;;;;;;;;;;;;2.72;76.49;101335.75;4121251;28;20025;-64
2023/03/04 01:15:34;;;;;;;;;;;;;;;2.81;76.16;101343.09;4119600;28;20017;-64
2023/03/04 01:17:36;;;;;;;;;;;;;;;2.81;76.20;101353.75;4121733;28;20366;-63
2023/03/04 01:19:38;;;;;;;;;;;;;;;2.83;76.09;101343.81;4119152;28;20016;-64
2023/03/04 01:21:40;;;;;;;;;;;;;;;2.84;75.77;101348.19;4120536;28;20037;-65
2023/03/04 01:23:42;;;;;;;;;;;;;;;2.85;75.76;101340.09;4121605;28;20020;-64
2023/03/04 01:25:45;;;;;;;;;;;;;;;2.84;75.72;101341.03;4104195;28;20024;-65
2023/03/04 01:27:47;;;;;;;;;;;;;;;2.83;75.77;101341.16;4122334;28;20020;-64
2023/03/04 01:29:49;;;;;;;;;;;;;;;2.83;75.70;101323.31;4115836;28;20012;-64
2023/03/04 01:31:51;;;;;;;;;;;;;;;2.86;75.61;101322.25;4121896;28;20352;-64
2023/03/04 01:33:55;;;;;;;;;;;;;;;2.86;75.58;101320.44;4127562;28;20336;-64
2023/03/04 01:35:57;;;;;;;;;;;;;;;2.87;75.57;101324.81;4129828;28;20936;-64
2023/03/04 01:38:00;;;;;;;;;;;;;;;2.88;75.33;101315.84;4122273;28;20475;-64
2023/03/04 01:40:04;;;;;;;;;;;;;;;2.91;75.50;101319.25;4126098;28;20041;-64
2023/03/04 01:42:09;;;;;;;;;;;;;;;2.89;75.41;101306.84;4123592;28;20037;-63
2023/03/04 01:44:11;;;;;;;;;;;;;;;2.92;75.06;101308.47;4122820;28;20021;-64
2023/03/04 01:46:15;;;;;;;;;;;;;;;2.94;75.04;101319.88;4129468;28;20013;-65
2023/03/04 01:48:19;;;;;;;;;;;;;;;2.95;75.12;101312.72;4128725;28;20020;-65
2023/03/04 01:50:22;;;;;;;;;;;;;;;2.96;75.07;101311.75;4124635;28;20016;-65
2023/03/04 01:52:25;;;;;;;;;;;;;;;2.96;75.00;101314.41;4105968;28;20025;-65
2023/03/04 01:54:27;;;;;;;;;;;;;;;2.96;74.96;101311.75;4123003;28;19996;-65
2023/03/04 01:56:30;;;;;;;;;;;;;;;2.98;75.06;101315.13;4122321;28;20025;-65
2023/03/04 01:58:33;;;;;;;;;;;;;;;2.96;74.99;101309.94;4124397;28;20123;-65
2023/03/04 02:00:36;;;;;;;;;;;;;;;2.98;74.89;101299.13;4090784;28;20026;-65
2023/03/04 02:02:38;;;;;;;;;;;;;;;2.97;75.07;101300.97;4125188;28;20024;-65
2023/03/04 02:04:41;;;;;;;;;;;;;;;2.98;75.15;101299.13;4129965;28;20017;-64
2023/03/04 02:06:43;;;;;;;;;;;;;;;2.99;75.08;101298.19;4099776;28;20025;-65
2023/03/04 02:08:45;;;;;;;;;;;;;;;3.01;75.17;101293.56;4131642;28;19973;-65
2023/03/04 02:10:47;;;;;;;;;;;;;;;3.04;74.81;101296.00;4130888;28;20005;-64
2023/03/04 02:12:49;;;;;;;;;;;;;;;3.04;74.95;101290.66;4114466;28;20022;-65
2023/03/04 02:14:52;;;;;;;;;;;;;;;3.05;74.70;101284.38;4132402;28;20009;-65
2023/03/04 02:16:54;;;;;;;;;;;;;;;3.06;74.84;101283.41;4132944;28;20013;-65
2023/03/04 02:18:56;;;;;;;;;;;;;;;3.06;74.76;101286.94;4131434;28;20025;-65
2023/03/04 02:21:00;;;;;;;;;;;;;;;3.08;74.73;101278.81;4130840;28;20375;-65
2023/03/04 02:23:04;;;;;;;;;;;;;;;3.09;74.58;101275.19;4134865;28;20020;-65
2023/03/04 02:25:08;;;;;;;;;;;;;;;3.11;74.52;101286.59;4126574;28;20025;-65
2023/03/04 02:27:11;;;;;;;;;;;;;;;3.13;74.37;101273.13;4128964;28;20032;-65
2023/03/04 02:29:14;;;;;;;;;;;;;;;3.13;74.51;101271.31;4131360;28;19969;-65
2023/03/04 02:31:22;;;;;;;;;;;;;;;3.15;74.29;101282.75;4131858;28;21092;-65
2023/03/04 02:33:24;;;;;;;;;;;;;;;3.15;74.48;101265.84;4130686;28;20020;-65
2023/03/04 02:35:26;;;;;;;;;;;;;;;3.16;74.36;101260.41;4116041;28;20028;-65
2023/03/04 02:37:28;;;;;;;;;;;;;;;3.19;74.30;101264.66;4122725;28;20025;-65
2023/03/04 02:39:31;;;;;;;;;;;;;;;3.20;74.38;101256.53;4121443;28;20020;-63
2023/03/04 02:41:33;;;;;;;;;;;;;;;3.21;73.84;101260.03;4121674;28;20025;-64
2023/03/04 02:43:37;;;;;;;;;;;;;;;3.21;73.93;101250.25;4105310;28;20021;-64
2023/03/04 02:45:41;;;;;;;;;;;;;;;3.22;74.12;101243.91;4122882;28;20020;-64
2023/03/04 02:47:44;;;;;;;;;;;;;;;3.22;74.75;101243.91;4106005;28;20017;-65
2023/03/04 02:49:46;;;;;;;;;;;;;;;3.22;74.80;101235.06;4122222;28;20376;-64
2023/03/04 02:51:50;;;;;;;;;;;;;;;3.23;74.79;101242.97;4104497;28;20017;-64
2023/03/04 02:53:52;;;;;;;;;;;;;;;3.23;74.62;101234.09;4121453;28;20024;-64
2023/03/04 02:55:54;;;;;;;;;;;;;;;3.25;74.81;101235.66;4119468;28;20369;-65
2023/03/04 02:57:58;;;;;;;;;;;;;;;3.27;74.74;101240.91;4121991;28;20020;-65
2023/03/04 03:00:02;;;;;;;;;;;;;;;3.28;74.78;101236.44;4122323;28;20013;-65
2023/03/04 03:02:04;;;;;;;;;;;;;;;3.29;74.58;101243.44;4123922;28;20116;-65
2023/03/04 03:04:06;;;;;;;;;;;;;;;3.29;74.79;101228.31;4123419;28;20378;-65
2023/03/04 03:06:09;;;;;;;;;;;;;;;3.31;74.73;101233.50;4123041;28;20024;-64
2023/03/04 03:08:11;;;;;;;;;;;;;;;3.32;74.68;101227.19;4123935;28;20029;-64
2023/03/04 03:10:15;;;;;;;;;;;;;;;3.30;74.89;101231.81;4124526;28;20021;-65
2023/03/04 03:12:17;;;;;;;;;;;;;;;3.31;74.52;101225.47;4112965;28;20033;-65
2023/03/04 03:14:19;;;;;;;;;;;;;;;3.32;74.76;101233.38;4132067;28;20021;-64
2023/03/04 03:16:22;;;;;;;;;;;;;;;3.32;75.41;101228.03;4132096;28;20021;-64
2023/03/04 03:18:25;;;;;;;;;;;;;;;3.33;75.25;101232.41;4131231;28;20024;-65
2023/03/04 03:20:27;;;;;;;;;;;;;;;3.33;74.81;101231.56;4114277;28;20018;-64
2023/03/04 03:22:29;;;;;;;;;;;;;;;3.33;75.03;101232.41;4117207;28;21474;-64
2023/03/04 03:24:31;;;;;;;;;;;;;;;3.33;74.93;101227.06;4139266;28;19961;-65
2023/03/04 03:26:33;;;;;;;;;;;;;;;3.34;75.18;101225.25;4131000;28;20029;-64
2023/03/04 03:28:35;;;;;;;;;;;;;;;3.34;74.87;101225.25;4115361;28;20033;-65
2023/03/04 03:30:37;;;;;;;;;;;;;;;3.35;74.56;101226.97;4114578;28;20021;-64
2023/03/04 03:32:43;;;;;;;;;;;;;;;3.37;74.48;101225.88;4123283;28;20041;-65
2023/03/04 03:34:45;;;;;;;;;;;;;;;3.38;74.31;101216.03;4128477;28;20420;-64
2023/03/04 03:36:47;;;;;;;;;;;;;;;3.39;74.57;101229.28;4127898;28;20379;-65
2023/03/04 03:38:49;;;;;;;;;;;;;;;3.39;73.97;101215.94;4130720;28;20018;-65
2023/03/04 03:40:51;;;;;;;;;;;;;;;3.39;73.81;101215.94;4131063;28;20020;-64
2023/03/04 03:42:53;;;;;;;;;;;;;;;3.41;74.14;101219.31;4131139;28;20016;-64
2023/03/04 03:44:54;;;;;;;;;;;;;;;3.41;73.76;101211.31;4131336;28;20471;-64
2023/03/04 03:46:56;;;;;;;;;;;;;;;3.43;73.81;101211.19;4131772;28;20021;-65
2023/03/04 03:49:00;;;;;;;;;;;;;;;3.43;74.19;101208.50;4131383;28;20013;-64
2023/03/04 03:51:02;;;;;;;;;;;;;;;3.42;74.32;101207.69;4131534;28;20025;-64
2023/03/04 03:53:04;;;;;;;;;;;;;;;3.43;74.22;101209.38;4120303;28;20021;-64
2023/03/04 03:55:06;;;;;;;;;;;;;;;3.43;74.55;101188.03;4137130;28;20029;-64
2023/03/04 03:57:08;;;;;;;;;;;;;;;3.45;74.99;101187.91;4129717;28;19965;-65
2023/03/04 03:59:10;;;;;;;;;;;;;;;3.45;75.26;101190.56;4131983;28;20026;-65
2023/03/04 04:01:12;;;;;;;;;;;;;;;3.46;75.20;101194.94;4131464;28;20040;-64
2023/03/04 04:03:14;;;;;;;;;;;;;;;3.45;75.79;101187.03;4113431;28;20025;-65
2023/03/04 04:05:18;;;;;;;;;;;;;;;3.43;76.09;101180.00;4130751;28;20013;-65
2023/03/04 04:07:19;;;;;;;;;;;;;;;3.43;75.88;101184.47;4131565;28;20020;-65
2023/03/04 04:09:21;;;;;;;;;;;;;;;3.43;75.68;101179.16;4130822;28;20012;-64
2023/03/04 04:11:23;;;;;;;;;;;;;;;3.43;76.00;101184.47;4129795;28;20013;-65
2023/03/04 04:13:25;;;;;;;;;;;;;;;3.43;76.51;101185.34;4130242;28;20017;-65
2023/03/04 04:15:27;;;;;;;;;;;;;;;3.43;76.35;101185.34;4118661;28;20020;-65
2023/03/04 04:17:29;;;;;;;;;;;;;;;3.45;75.94;101185.25;4131529;28;20364;-65
2023/03/04 04:19:31;;;;;;;;;;;;;;;3.45;75.61;101184.38;4130969;28;20013;-64
2023/03/04 04:21:35;;;;;;;;;;;;;;;3.45;75.63;101185.25;4130871;28;20037;-64
2023/03/04 04:23:37;;;;;;;;;;;;;;;3.46;75.90;101184.25;4135941;28;20456;-64
2023/03/04 04:25:39;;;;;;;;;;;;;;;3.46;75.94;101178.91;4130177;28;20024;-64
2023/03/04 04:27:40;;;;;;;;;;;;;;;3.48;76.42;101185.00;4130947;28;20021;-64
2023/03/04 04:29:42;;;;;;;;;;;;;;;3.46;76.36;101180.72;4130591;28;20033;-64
2023/03/04 04:31:44;;;;;;;;;;;;;;;3.45;75.57;101177.22;4130847;28;20016;-64
2023/03/04 04:33:46;;;;;;;;;;;;;;;3.46;75.65;101178.91;4131284;28;20021;-64
2023/03/04 04:35:48;;;;;;;;;;;;;;;3.46;75.66;101176.22;4130949;28;20017;-65
2023/03/04 04:37:52;;;;;;;;;;;;;;;3.47;75.92;101171.75;4131149;28;20029;-65
2023/03/04 04:39:54;;;;;;;;;;;;;;;3.47;76.10;101175.28;4130954;28;20009;-65
2023/03/04 04:41:56;;;;;;;;;;;;;;;3.49;75.70;101180.50;4130112;28;20455;-65
2023/03/04 04:43:58;;;;;;;;;;;;;;;3.49;75.78;101167.97;4130938;28;20008;-64
2023/03/04 04:46:00;;;;;;;;;;;;;;;3.51;75.51;101162.53;4130707;28;20350;-64
2023/03/04 04:48:02;;;;;;;;;;;;;;;3.52;75.16;101166.91;4131115;28;20029;-64
2023/03/04 04:50:04;;;;;;;;;;;;;;;3.51;74.73;101168.72;4130902;28;20005;-64
2023/03/04 04:52:06;;;;;;;;;;;;;;;3.54;74.92;101154.28;4130372;28;20037;-65
2023/03/04 04:54:10;;;;;;;;;;;;;;;3.55;75.02;101159.50;4130323;28;20009;-65
2023/03/04 04:56:12;;;;;;;;;;;;;;;3.55;74.66;101154.16;4130362;28;20009;-65
2023/03/04 04:58:14;;;;;;;;;;;;;;;3.56;74.96;101163.88;4131008;28;20016;-65
2023/03/04 05:00:17;;;;;;;;;;;;;;;3.55;74.84;101155.97;4122490;28;20436;-64
2023/03/04 05:02:19;;;;;;;;;;;;;;;3.57;75.36;101162.91;4129264;28;20024;-65
2023/03/04 05:04:21;;;;;;;;;;;;;;;3.57;75.60;101157.56;4130356;28;20057;-65
2023/03/04 05:06:24;;;;;;;;;;;;;;;3.57;75.41;101149.56;4129893;28;20375;-65
2023/03/04 05:08:26;;;;;;;;;;;;;;;3.57;74.59;101157.56;4130930;28;20017;-65
2023/03/04 05:10:29;;;;;;;;;;;;;;;3.58;74.46;101153.91;4129633;28;20013;-64
2023/03/04 05:12:31;;;;;;;;;;;;;;;3.59;74.07;101158.28;4129779;28;20020;-63
2023/03/04 05:14:33;;;;;;;;;;;;;;;3.61;74.42;101156.34;4132317;28;20029;-64
2023/03/04 05:16:35;;;;;;;;;;;;;;;3.60;74.28;101157.31;4134021;28;20025;-64
2023/03/04 05:18:37;;;;;;;;;;;;;;;3.62;73.82;101154.53;4134023;28;20466;-64
2023/03/04 05:20:39;;;;;;;;;;;;;;;3.63;74.09;101153.53;4133141;28;20017;-65
2023/03/04 05:22:41;;;;;;;;;;;;;;;3.63;73.67;101156.22;4135284;28;20025;-65
2023/03/04 05:24:43;;;;;;;;;;;;;;;3.66;74.39;101155.13;4136503;28;20017;-64
2023/03/04 05:26:46;;;;;;;;;;;;;;;3.65;74.64;101151.59;4132864;28;20033;-64
2023/03/04 05:28:48;;;;;;;;;;;;;;;3.65;73.67;101154.25;4134040;28;20025;-65
2023/03/04 05:30:50;;;;;;;;;;;;;;;3.67;73.28;101148.78;4133514;28;20032;-64
2023/03/04 05:32:52;;;;;;;;;;;;;;;3.68;74.07;101145.16;4132996;28;20009;-64
2023/03/04 05:34:54;;;;;;;;;;;;;;;3.68;73.94;101150.50;4120648;28;20028;-64
2023/03/04 05:36:56;;;;;;;;;;;;;;;3.69;73.35;101152.22;4133982;28;20024;-65
2023/03/04 05:38:58;;;;;;;;;;;;;;;3.69;73.47;101144.22;4133760;28;20021;-65
2023/03/04 05:41:01;;;;;;;;;;;;;;;3.71;73.67;101147.59;4132737;28;20017;-64
2023/03/04 05:43:04;;;;;;;;;;;;;;;3.72;74.06;101147.47;4120440;28;20020;-65
2023/03/04 05:45:07;;;;;;;;;;;;;;;3.74;74.01;101147.34;4133408;28;20033;-65
2023/03/04 05:47:09;;;;;;;;;;;;;;;3.74;73.97;101148.19;4133593;28;20021;-65
2023/03/04 05:49:11;;;;;;;;;;;;;;;3.75;73.51;101151.72;4133338;28;20016;-64
2023/03/04 05:51:13;;;;;;;;;;;;;;;3.75;73.12;101141.88;4133269;28;20021;-64
2023/03/04 05:53:14;;;;;;;;;;;;;;;3.76;73.97;101151.59;4139580;28;20021;-65
2023/03/04 05:55:17;;;;;;;;;;;;;;;3.76;73.97;101146.25;4137968;28;20016;-64
2023/03/04 05:57:19;;;;;;;;;;;;;;;3.77;73.65;101155.13;4133071;28;19968;-64
2023/03/04 05:59:22;;;;;;;;;;;;;;;3.78;74.26;101149.66;4131532;28;20016;-64
2023/03/04 06:01:24;;;;;;;;;;;;;;;3.80;74.90;101144.19;4133166;28;19965;-64
2023/03/04 06:03:26;;;;;;;;;;;;;;;3.80;74.48;101146.84;4132542;28;20028;-63
2023/03/04 06:05:28;;;;;;;;;;;;;;;3.82;74.95;101146.75;4131374;28;20021;-64
2023/03/04 06:07:30;;;;;;;;;;;;;;;3.80;74.25;101146.84;4133283;28;20021;-63
2023/03/04 06:09:33;;;;;;;;;;;;;;;3.81;73.77;101142.34;4132731;28;20020;-64
2023/03/04 06:11:35;;;;;;;;;;;;;;;3.82;73.66;101144.06;4132394;28;20017;-64
2023/03/04 06:13:37;;;;;;;;;;;;;;;3.83;74.27;101137.75;4131962;28;20020;-64
2023/03/04 06:15:40;;;;;;;;;;;;;;;3.83;73.40;101143.09;4132803;28;20020;-64
2023/03/04 06:17:42;;;;;;;;;;;;;;;3.85;73.71;101152.69;4133099;28;20372;-64
2023/03/04 06:19:44;;;;;;;;;;;;;;;3.85;73.38;101150.00;4132810;28;20017;-64
2023/03/04 06:21:46;;;;;;;;;;;;;;;3.85;73.63;101155.34;4132578;28;20033;-63
2023/03/04 06:23:48;;;;;;;;;;;;;;;3.87;73.22;101155.22;4138082;28;20391;-63
2023/03/04 06:25:51;;;;;;;;;;;;;;;3.87;73.54;101150.75;4131192;28;20060;-64
2023/03/04 06:27:53;;;;;;;;;;;;;;;3.87;73.68;101145.41;4132561;28;20025;-64
2023/03/04 06:29:55;;;;;;;;;;;;;;;3.90;74.81;101153.19;4114748;28;20014;-64
2023/03/04 06:31:58;;;;;;;;;;;;;;;3.88;73.68;101152.44;4129024;28;20459;-63
2023/03/04 06:34:00;;;;;;;;;;;;;;;3.88;73.03;101147.09;4133016;28;20024;-65
2023/03/04 06:36:02;;;;;;;;;;;;;;;3.90;73.01;101152.31;4132630;28;20451;-64
2023/03/04 06:38:04;;;;;;;;;;;;;;;3.90;73.07;101150.50;4115434;28;20512;-64
2023/03/04 06:40:07;;;;;;;;;;;;;;;3.91;73.06;101149.50;4131992;28;20093;-64
2023/03/04 06:42:09;;;;;;;;;;;;;;;3.92;72.91;101153.06;4131765;28;20020;-64
2023/03/04 06:44:11;;;;;;;;;;;;;;;3.93;73.13;101154.72;4132518;28;20013;-64
2023/03/04 06:46:13;;;;;;;;;;;;;;;3.93;74.07;101157.41;4128346;28;20028;-64
2023/03/04 06:48:16;;;;;;;;;;;;;;;3.93;74.05;101157.41;4132747;28;20012;-63
2023/03/04 06:50:18;;;;;;;;;;;;;;;3.95;74.18;101163.50;4131960;28;20009;-63
2023/03/04 06:52:20;;;;;;;;;;;;;;;3.94;73.80;101151.09;4129904;28;20028;-63
2023/03/04 06:54:22;;;;;;;;;;;;;;;3.97;75.16;101149.03;4133069;28;20041;-63
2023/03/04 06:56:24;;;;;;;;;;;;;;;3.98;74.95;101157.88;4130704;28;20009;-64
2023/03/04 06:58:26;;;;;;;;;;;;;;;3.97;74.70;101153.53;4131241;28;20028;-63
2023/03/04 07:00:28;;;;;;;;;;;;;;;3.97;75.40;101153.53;4130630;28;20024;-63
2023/03/04 07:02:30;;;;;;;;;;;;;;;3.95;75.04;101153.66;4129605;28;20431;-64
2023/03/04 07:04:36;;;;;;;;;;;;;;;3.95;74.05;101150.13;4130449;28;20009;-64
2023/03/04 07:06:38;;;;;;;;;;;;;;;3.97;73.75;101158.88;4130347;28;20024;-64
2023/03/04 07:08:40;;;;;;;;;;;;;;;3.97;73.31;101154.38;4113051;28;20370;-64
2023/03/04 07:10:42;;;;;;;;;;;;;;;4.01;74.44;101154.13;4130026;28;20017;-64
2023/03/04 07:12:44;;;;;;;;;;;;;;;4.01;74.89;101154.97;4123699;28;20382;-64
2023/03/04 07:14:46;;;;;;;;;;;;;;;4.02;75.10;101153.16;4130256;28;20475;-64
2023/03/04 07:16:48;;;;;;;;;;;;;;;4.02;75.45;101153.16;4128862;28;20588;-64
2023/03/04 07:18:50;;;;;;;;;;;;;;;4.03;74.69;101157.50;4130535;28;20024;-64
2023/03/04 07:20:53;;;;;;;;;;;;;;;4.02;74.83;101148.66;4128563;28;20388;-64
2023/03/04 07:22:55;;;;;;;;;;;;;;;4.06;74.68;101165.28;4134326;28;20483;-64
2023/03/04 07:24:57;;;;;;;;;;;;;;;4.06;74.20;101155.47;4111886;28;20666;-64
2023/03/04 07:26:59;;;;;;;;;;;;;;;4.07;74.58;101158.97;4128609;28;20012;-64
2023/03/04 07:29:01;;;;;;;;;;;;;;;4.07;74.32;101164.31;4129591;28;20400;-64
2023/03/04 07:31:13;;;;;;;;;;;;;;;4.10;75.32;101164.06;4112197;28;19962;-64
2023/03/04 07:33:15;;;;;;;;;;;;;;;4.09;74.69;101155.22;4124732;28;19961;-63
2023/03/04 07:35:17;;;;;;;;;;;;;;;4.10;74.69;101164.91;4128866;28;20017;-64
2023/03/04 07:37:20;;;;;;;;;;;;;;;4.11;74.61;101149.75;4130023;28;20382;-64
2023/03/04 07:39:22;;;;;;;;;;;;;;;4.12;75.42;101162.09;4111885;28;20049;-64
2023/03/04 07:41:25;;;;;;;;;;;;;;;4.11;74.90;101160.44;4129239;28;20025;-64
2023/03/04 07:43:27;;;;;;;;;;;;;;;4.13;75.38;101161.97;4127710;28;20479;-64
2023/03/04 07:45:30;;;;;;;;;;;;;;;4.14;76.00;101155.69;4129233;28;20009;-64
2023/03/04 07:47:32;;;;;;;;;;;;;;;4.15;76.72;101159.19;4129603;28;20020;-64
2023/03/04 07:49:37;;;;;;;;;;;;;;;4.14;75.53;101168.19;4128219;28;20013;-64
2023/03/04 07:51:39;;;;;;;;;;;;;;;4.14;75.51;101162.84;4129850;28;20024;-64
2023/03/04 07:53:43;;;;;;;;;;;;;;;4.12;74.34;101156.75;4130421;28;20462;-65
2023/03/04 07:55:47;;;;;;;;;;;;;;;4.15;74.55;101157.38;4126991;28;20029;-65
2023/03/04 07:57:49;;;;;;;;;;;;;;;4.16;74.75;101160.91;4129773;28;20041;-65
2023/03/04 07:59:51;;;;;;;;;;;;;;;4.17;75.01;101159.06;4129176;28;20033;-65
2023/03/04 08:01:53;;;;;;;;;;;;;;;4.18;75.30;101153.59;4129367;28;20031;-64
2023/03/04 08:03:55;;;;;;;;;;;;;;;4.18;74.97;101156.25;4129426;28;20024;-63
2023/03/04 08:05:57;;;;;;;;;;;;;;;4.20;74.86;101154.34;4129539;28;20008;-64
2023/03/04 08:07:59;;;;;;;;;;;;;;;4.20;74.12;101164.16;4129569;28;21049;-64
2023/03/04 08:10:02;;;;;;;;;;;;;;;4.19;73.93;101163.31;4129519;28;20366;-63
2023/03/04 08:12:04;;;;;;;;;;;;;;;4.22;75.36;101164.91;4125226;28;20026;-64
2023/03/04 08:14:08;;;;;;;;;;;;;;;4.23;76.01;101151.41;4124647;28;20008;-63
2023/03/04 08:16:10;;;;;;;;;;;;;;;4.22;75.19;101151.53;4128945;28;20439;-64
2023/03/04 08:18:12;;;;;;;;;;;;;;;4.21;74.84;101156.00;4112140;28;20013;-64
2023/03/04 08:20:14;;;;;;;;;;;;;;;4.23;75.80;101159.44;4129101;28;20028;-64
2023/03/04 08:22:16;;;;;;;;;;;;;;;4.23;75.05;101155.88;4128622;28;20017;-64
2023/03/04 08:24:18;;;;;;;;;;;;;;;4.25;75.18;101156.63;4129179;28;20012;-64
2023/03/04 08:26:22;;;;;;;;;;;;;;;4.26;75.19;101156.50;4128879;28;20044;-64
2023/03/04 08:28:24;;;;;;;;;;;;;;;4.27;75.14;101157.34;4128407;28;20040;-65
2023/03/04 08:30:26;;;;;;;;;;;;;;;4.27;75.44;101160.84;4112061;28;20021;-65
2023/03/04 08:32:28;;;;;;;;;;;;;;;4.28;75.29;101153.72;4128856;28;20033;-65
2023/03/04 08:34:30;;;;;;;;;;;;;;;4.27;73.92;101152.84;4128742;28;19933;-64
2023/03/04 08:36:32;;;;;;;;;;;;;;;4.30;74.23;101151.75;4129492;28;20098;-65
2023/03/04 08:38:36;;;;;;;;;;;;;;;4.29;74.10;101148.19;4107638;28;20030;-64
2023/03/04 08:40:38;;;;;;;;;;;;;;;4.31;74.07;101150.75;4126441;28;20012;-64
2023/03/04 08:42:43;;;;;;;;;;;;;;;4.30;74.04;101147.25;4110612;28;20025;-64
2023/03/04 08:44:45;;;;;;;;;;;;;;;4.33;73.61;101151.50;4128916;28;20013;-65
2023/03/04 08:46:47;;;;;;;;;;;;;;;4.36;75.62;101153.91;4127132;28;20356;-64
2023/03/04 08:48:49;;;;;;;;;;;;;;;4.36;75.58;101142.34;4129404;28;20017;-64
2023/03/04 08:50:51;;;;;;;;;;;;;;;4.33;74.88;101135.44;4132260;28;20021;-64
2023/03/04 08:52:53;;;;;;;;;;;;;;;4.35;74.91;101132.66;4135544;28;20023;-64
2023/03/04 08:54:55;;;;;;;;;;;;;;;4.36;74.81;101137.88;4130128;28;19926;-64
2023/03/04 08:56:57;;;;;;;;;;;;;;;4.38;74.86;101135.91;4130998;28;20009;-64
2023/03/04 08:59:00;;;;;;;;;;;;;;;4.38;74.33;101135.91;4131588;28;20020;-64
2023/03/04 09:01:02;;;;;;;;;;;;;;;4.39;74.17;101137.63;4130481;28;20025;-64
2023/03/04 09:03:04;;;;;;;;;;;;;;;4.40;73.79;101125.09;4128483;28;20025;-64
2023/03/04 09:05:07;;;;;;;;;;;;;;;4.41;73.91;101132.16;4124112;28;20024;-64
2023/03/04 09:07:10;;;;;;;;;;;;;;;4.45;75.06;101128.22;4128132;28;20024;-64
2023/03/04 09:09:12;;;;;;;;;;;;;;;4.47;74.93;101129.81;4131405;28;20029;-63
2023/03/04 09:11:14;;;;;;;;;;;;;;;4.49;74.39;101118.97;4130196;28;20561;-65
2023/03/04 09:13:16;;;;;;;;;;;;;;;4.48;74.43;101126.16;4130545;28;20028;-64
2023/03/04 09:15:19;;;;;;;;;;;;;;;4.47;73.44;101124.44;4128043;28;19932;-64
2023/03/04 09:17:24;;;;;;;;;;;;;;;4.49;73.59;101132.34;4130519;28;20017;-64
2023/03/04 09:19:26;;;;;;;;;;;;;;;4.50;73.23;101128.72;4131138;28;20020;-64
2023/03/04 09:21:28;;;;;;;;;;;;;;;4.54;74.25;101135.47;4131098;28;20024;-64
2023/03/04 09:23:30;;;;;;;;;;;;;;;4.55;74.16;101129.16;4132459;28;20515;-64
2023/03/04 09:25:32;;;;;;;;;;;;;;;4.58;73.98;101131.59;4128254;28;20030;-63
2023/03/04 09:27:34;;;;;;;;;;;;;;;4.58;73.97;101142.28;4131061;28;20020;-64
2023/03/04 09:29:36;;;;;;;;;;;;;;;4.59;73.70;101132.41;4130843;28;20365;-64
2023/03/04 09:31:40;;;;;;;;;;;;;;;4.57;73.36;101137.91;4131964;28;20020;-63
2023/03/04 09:33:42;;;;;;;;;;;;;;;4.57;73.25;101140.56;4131861;28;20025;-64
2023/03/04 09:35:48;;;;;;;;;;;;;;;4.57;73.30;101137.91;4131625;28;19929;-63
2023/03/04 09:37:51;;;;;;;;;;;;;;;4.58;73.17;101138.78;4132000;28;20038;-63
2023/03/04 09:39:53;;;;;;;;;;;;;;;4.58;73.06;101131.59;4131019;28;20399;-63
2023/03/04 09:41:56;;;;;;;;;;;;;;;4.60;73.03;101134.13;4113823;28;20608;-63
2023/03/04 09:43:58;;;;;;;;;;;;;;;4.61;73.19;101134.00;4132080;28;20009;-63
2023/03/04 09:46:01;;;;;;;;;;;;;;;4.63;72.87;101142.75;4131287;28;20044;-64
2023/03/04 09:48:05;;;;;;;;;;;;;;;4.64;73.29;101136.44;4131945;28;20594;-64
2023/03/04 09:50:10;;;;;;;;;;;;;;;4.65;73.23;101130.06;4131418;28;20303;-64
2023/03/04 09:52:16;;;;;;;;;;;;;;;4.67;73.11;101136.16;4131261;28;19929;-63
2023/03/04 09:54:24;;;;;;;;;;;;;;;4.68;73.19;101134.31;4134902;28;20012;-63
2023/03/04 09:56:26;;;;;;;;;;;;;;;4.66;72.96;101133.63;4131940;28;19929;-63
2023/03/04 09:58:30;;;;;;;;;;;;;;;4.67;72.93;101136.16;4131630;28;20066;-62
2023/03/04 10:00:33;;;;;;;;;;;;;;;4.68;73.19;101132.50;4131006;28;20029;-63
2023/03/04 10:02:45;;;;;;;;;;;;;;;4.68;72.93;101135.16;4130924;28;20021;-63
2023/03/04 10:04:48;;;;;;;;;;;;;;;4.68;73.00;101137.84;4130957;28;19960;-62
2023/03/04 10:06:53;;;;;;;;;;;;;;;4.69;73.04;101128.00;4131664;28;20463;-64
2023/03/04 10:08:56;;;;;;;;;;;;;;;4.69;73.01;101126.16;4113924;28;20024;-61
2023/03/04 10:10:58;;;;;;;;;;;;;;;4.69;72.81;101136.03;4131147;28;20497;-61
2023/03/04 10:13:00;;;;;;;;;;;;;;;4.69;72.56;101136.88;4130413;28;20498;-63
2023/03/04 10:15:03;;;;;;;;;;;;;;;4.70;72.72;101140.38;4130790;28;20017;-65
2023/03/04 10:17:07;;;;;;;;;;;;;;;4.69;72.67;101144.91;4119414;28;20430;-64
2023/03/04 10:19:19;;;;;;;;;;;;;;;4.70;72.87;101137.72;4131430;28;20008;-63
2023/03/04 10:21:24;;;;;;;;;;;;;;;4.69;72.81;101128.84;4130674;28;20936;-63
2023/03/04 10:23:26;;;;;;;;;;;;;;;4.74;72.92;101124.94;4135696;28;20459;-63
2023/03/04 10:25:29;;;;;;;;;;;;;;;4.74;72.77;101123.13;4130834;28;20733;-64
2023/03/04 10:27:31;;;;;;;;;;;;;;;4.78;72.51;101127.25;4131024;28;20013;-64
2023/03/04 10:29:33;;;;;;;;;;;;;;;4.77;72.60;101133.56;4131078;28;20025;-64
2023/03/04 10:31:36;;;;;;;;;;;;;;;4.77;72.31;101122.00;4130551;28;20017;-62
2023/03/04 10:33:39;;;;;;;;;;;;;;;4.75;72.41;101123.94;4130600;28;20033;-64
2023/03/04 10:35:41;;;;;;;;;;;;;;;4.76;72.06;101133.69;4130558;28;20025;-64
2023/03/04 10:37:44;;;;;;;;;;;;;;;4.74;72.34;101133.81;4131255;28;20364;-64